sensor_id;sensor_type;location;lat;lon;timestamp;pressure;altitude;pressure_sealevel;temperature;humidity
4449;BME280;2237;51.870;6.160;2022-12-29T00:01:38;99970.78;;;12.03;100.00
4449;BME280;2237;51.870;6.160;2022-12-29T00:04:05;99965.56;;;12.03;100.00
4449;BME280;2237;51.870;6.160;2022-12-29T00:06:39;99960.47;;;12.00;100.00
4449;BME280;2237;51.870;6.160;2022-12-29T00:09:06;99959.50;;;12.03;100.00
4449;BME280;2237;51.870;6.160;2022-12-29T00:11:32;99945.53;;;12.04;100.00
4449;BME280;2237;51.870;6.160;2022-12-29T00:13:59;99941.09;;;12.06;100.00
4449;BME280;2237;51.870;6.160;2022-12-29T00:16:51;99938.47;;;12.06;100.00
4449;BME280;2237;51.870;6.160;2022-12-29T00:19:17;99941.34;;;12.00;100.00
4449;BME280;2237;51.870;6.160;2022-12-29T00:22:09;99939.66;;;11.99;100.00
4449;BME280;2237;51.870;6.160;2022-12-29T00:24:54;99938.75;;;12.00;100.00
4449;BME280;2237;51.870;6.160;2022-12-29T00:27:21;99953.63;;;11.98;100.00
4449;BME280;2237;51.870;6.160;2022-12-29T00:30:15;99933.25;;;12.06;100.00
4449;BME280;2237;51.870;6.160;2022-12-29T00:33:00;99913.69;;;12.16;100.00
4449;BME280;2237;51.870;6.160;2022-12-29T00:35:51;99924.16;;;12.16;100.00
4449;BME280;2237;51.870;6.160;2022-12-29T00:38:19;99921.78;;;12.10;100.00
4449;BME280;2237;51.870;6.160;2022-12-29T00:41:05;99921.97;;;12.05;100.00
4449;BME280;2237;51.870;6.160;2022-12-29T00:43:50;99912.84;;;11.95;100.00
4449;BME280;2237;51.870;6.160;2022-12-29T00:46:32;99915.00;;;11.85;100.00
4449;BME280;2237;51.870;6.160;2022-12-29T00:48:59;99909.31;;;11.76;100.00
4449;BME280;2237;51.870;6.160;2022-12-29T00:51:45;99903.78;;;11.83;100.00
4449;BME280;2237;51.870;6.160;2022-12-29T00:54:12;99906.56;;;11.79;100.00
4449;BME280;2237;51.870;6.160;2022-12-29T00:56:39;99899.56;;;11.81;100.00
4449;BME280;2237;51.870;6.160;2022-12-29T00:59:08;99898.81;;;11.77;100.00
4449;BME280;2237;51.870;6.160;2022-12-29T01:01:36;99890.28;;;11.74;100.00
4449;BME280;2237;51.870;6.160;2022-12-29T01:04:03;99885.66;;;11.80;100.00
4449;BME280;2237;51.870;6.160;2022-12-29T01:06:30;99889.41;;;11.73;100.00
4449;BME280;2237;51.870;6.160;2022-12-29T01:08:58;99883.22;;;11.76;100.00
4449;BME280;2237;51.870;6.160;2022-12-29T01:11:43;99896.81;;;11.84;100.00
4449;BME280;2237;51.870;6.160;2022-12-29T01:14:09;99891.91;;;11.76;100.00
4449;BME280;2237;51.870;6.160;2022-12-29T01:16:36;99891.00;;;11.77;100.00
4449;BME280;2237;51.870;6.160;2022-12-29T01:19:03;99893.09;;;11.69;100.00
4449;BME280;2237;51.870;6.160;2022-12-29T01:21:30;99901.91;;;11.65;100.00
4449;BME280;2237;51.870;6.160;2022-12-29T01:23:56;99896.56;;;11.68;100.00
4449;BME280;2237;51.870;6.160;2022-12-29T01:26:23;99890.56;;;11.66;100.00
4449;BME280;2237;51.870;6.160;2022-12-29T01:28:49;99881.66;;;11.72;100.00
4449;BME280;2237;51.870;6.160;2022-12-29T01:31:16;99869.78;;;11.85;100.00
4449;BME280;2237;51.870;6.160;2022-12-29T01:33:43;99871.88;;;11.97;100.00
4449;BME280;2237;51.870;6.160;2022-12-29T01:36:12;99872.13;;;11.91;100.00
4449;BME280;2237;51.870;6.160;2022-12-29T01:38:40;99869.41;;;11.94;100.00
4449;BME280;2237;51.870;6.160;2022-12-29T01:41:08;99863.47;;;11.90;100.00
4449;BME280;2237;51.870;6.160;2022-12-29T01:46:32;99852.84;;;11.95;100.00
4449;BME280;2237;51.870;6.160;2022-12-29T01:49:08;99846.91;;;11.92;100.00
4449;BME280;2237;51.870;6.160;2022-12-29T01:51:45;99848.47;;;11.96;100.00
4449;BME280;2237;51.870;6.160;2022-12-29T01:54:40;99843.09;;;11.99;100.00
4449;BME280;2237;51.870;6.160;2022-12-29T01:57:08;99843.25;;;11.96;100.00
4449;BME280;2237;51.870;6.160;2022-12-29T01:59:40;99830.91;;;11.99;100.00
4449;BME280;2237;51.870;6.160;2022-12-29T02:02:07;99829.88;;;12.03;100.00
4449;BME280;2237;51.870;6.160;2022-12-29T02:04:34;99832.97;;;11.93;100.00
4449;BME280;2237;51.870;6.160;2022-12-29T02:07:18;99845.00;;;11.95;100.00
4449;BME280;2237;51.870;6.160;2022-12-29T02:09:52;99843.09;;;11.99;100.00
4449;BME280;2237;51.870;6.160;2022-12-29T02:12:21;99837.31;;;11.92;100.00
4449;BME280;2237;51.870;6.160;2022-12-29T02:14:53;99841.28;;;12.01;100.00
4449;BME280;2237;51.870;6.160;2022-12-29T02:25:58;99829.34;;;11.95;100.00
4449;BME280;2237;51.870;6.160;2022-12-29T02:31:46;99827.44;;;11.99;100.00
4449;BME280;2237;51.870;6.160;2022-12-29T02:37:29;99817.25;;;12.13;100.00
4449;BME280;2237;51.870;6.160;2022-12-29T02:40:06;99807.09;;;12.07;100.00
4449;BME280;2237;51.870;6.160;2022-12-29T02:45:51;99794.31;;;12.01;100.00
4449;BME280;2237;51.870;6.160;2022-12-29T02:48:30;99802.91;;;12.03;100.00
4449;BME280;2237;51.870;6.160;2022-12-29T02:51:03;99805.16;;;12.10;100.00
4449;BME280;2237;51.870;6.160;2022-12-29T02:53:32;99797.44;;;12.09;100.00
4449;BME280;2237;51.870;6.160;2022-12-29T02:56:22;99795.53;;;12.12;100.00
4449;BME280;2237;51.870;6.160;2022-12-29T02:58:48;99794.59;;;12.13;100.00
4449;BME280;2237;51.870;6.160;2022-12-29T03:06:33;99802.50;;;12.12;100.00
4449;BME280;2237;51.870;6.160;2022-12-29T03:09:23;99795.25;;;12.18;100.00
4449;BME280;2237;51.870;6.160;2022-12-29T03:12:08;99799.81;;;12.13;100.00
4449;BME280;2237;51.870;6.160;2022-12-29T03:15:05;99795.94;;;12.22;100.00
4449;BME280;2237;51.870;6.160;2022-12-29T03:18:05;99784.97;;;12.15;100.00
4449;BME280;2237;51.870;6.160;2022-12-29T03:20:44;99793.97;;;12.08;100.00
4449;BME280;2237;51.870;6.160;2022-12-29T03:23:15;99805.13;;;12.12;100.00
4449;BME280;2237;51.870;6.160;2022-12-29T03:25:47;99801.78;;;12.08;100.00
4449;BME280;2237;51.870;6.160;2022-12-29T03:28:29;99798.16;;;12.12;100.00
4449;BME280;2237;51.870;6.160;2022-12-29T03:30:58;99792.06;;;12.12;100.00
4449;BME280;2237;51.870;6.160;2022-12-29T03:33:28;99789.88;;;12.03;100.00
4449;BME280;2237;51.870;6.160;2022-12-29T03:36:00;99788.03;;;12.05;100.00
4449;BME280;2237;51.870;6.160;2022-12-29T03:38:35;99781.06;;;12.05;100.00
4449;BME280;2237;51.870;6.160;2022-12-29T03:41:05;99779.16;;;12.09;100.00
4449;BME280;2237;51.870;6.160;2022-12-29T03:43:33;99773.94;;;12.09;100.00
4449;BME280;2237;51.870;6.160;2022-12-29T03:45:59;99768.22;;;12.01;100.00
4449;BME280;2237;51.870;6.160;2022-12-29T03:48:26;99769.50;;;12.11;100.00
4449;BME280;2237;51.870;6.160;2022-12-29T03:50:52;99779.44;;;12.03;100.00
4449;BME280;2237;51.870;6.160;2022-12-29T03:53:18;99776.69;;;12.06;100.00
4449;BME280;2237;51.870;6.160;2022-12-29T03:55:45;99780.06;;;12.08;100.00
4449;BME280;2237;51.870;6.160;2022-12-29T03:58:11;99773.53;;;12.18;100.00
4449;BME280;2237;51.870;6.160;2022-12-29T04:00:38;99774.56;;;12.14;100.00
4449;BME280;2237;51.870;6.160;2022-12-29T04:03:04;99783.97;;;12.18;100.00
4449;BME280;2237;51.870;6.160;2022-12-29T04:05:30;99776.75;;;12.23;100.00
4449;BME280;2237;51.870;6.160;2022-12-29T04:07:58;99783.06;;;12.19;100.00
4449;BME280;2237;51.870;6.160;2022-12-29T04:10:24;99784.81;;;12.18;100.00
4449;BME280;2237;51.870;6.160;2022-12-29T04:12:50;99786.84;;;12.12;100.00
4449;BME280;2237;51.870;6.160;2022-12-29T04:15:17;99789.25;;;12.16;100.00
4449;BME280;2237;51.870;6.160;2022-12-29T04:17:43;99790.31;;;12.12;100.00
4449;BME280;2237;51.870;6.160;2022-12-29T04:20:10;99794.72;;;12.10;100.00
4449;BME280;2237;51.870;6.160;2022-12-29T04:23:02;99790.22;;;12.14;100.00
4449;BME280;2237;51.870;6.160;2022-12-29T04:25:30;99778.13;;;12.13;100.00
4449;BME280;2237;51.870;6.160;2022-12-29T04:27:57;99782.03;;;12.03;100.00
4449;BME280;2237;51.870;6.160;2022-12-29T04:30:23;99791.44;;;12.07;100.00
4449;BME280;2237;51.870;6.160;2022-12-29T04:32:50;99784.50;;;12.06;100.00
4449;BME280;2237;51.870;6.160;2022-12-29T04:35:16;99791.34;;;12.08;100.00
4449;BME280;2237;51.870;6.160;2022-12-29T04:37:43;99783.34;;;12.13;100.00
4449;BME280;2237;51.870;6.160;2022-12-29T04:40:10;99808.63;;;12.11;100.00
4449;BME280;2237;51.870;6.160;2022-12-29T04:42:37;99817.66;;;12.04;100.00
4449;BME280;2237;51.870;6.160;2022-12-29T04:45:03;99814.34;;;12.00;100.00
4449;BME280;2237;51.870;6.160;2022-12-29T04:47:30;99829.69;;;11.87;100.00
4449;BME280;2237;51.870;6.160;2022-12-29T04:49:56;99775.75;;;11.88;100.00
4449;BME280;2237;51.870;6.160;2022-12-29T04:52:22;99774.88;;;11.87;100.00
4449;BME280;2237;51.870;6.160;2022-12-29T04:54:49;99788.47;;;11.75;100.00
4449;BME280;2237;51.870;6.160;2022-12-29T04:57:15;99794.91;;;11.67;100.00
4449;BME280;2237;51.870;6.160;2022-12-29T04:59:41;99798.06;;;11.75;100.00
4449;BME280;2237;51.870;6.160;2022-12-29T05:02:07;99810.31;;;11.73;100.00
4449;BME280;2237;51.870;6.160;2022-12-29T05:04:34;99806.03;;;11.72;100.00
4449;BME280;2237;51.870;6.160;2022-12-29T05:07:00;99820.06;;;11.69;100.00
4449;BME280;2237;51.870;6.160;2022-12-29T05:09:27;99824.69;;;11.61;100.00
4449;BME280;2237;51.870;6.160;2022-12-29T05:11:53;99812.91;;;11.53;100.00
4449;BME280;2237;51.870;6.160;2022-12-29T05:14:19;99831.41;;;11.47;100.00
4449;BME280;2237;51.870;6.160;2022-12-29T05:16:46;99828.91;;;11.44;100.00
4449;BME280;2237;51.870;6.160;2022-12-29T05:19:12;99827.41;;;11.38;100.00
4449;BME280;2237;51.870;6.160;2022-12-29T05:21:39;99838.91;;;11.34;100.00
4449;BME280;2237;51.870;6.160;2022-12-29T05:24:06;99821.81;;;11.27;100.00
4449;BME280;2237;51.870;6.160;2022-12-29T05:26:32;99827.38;;;11.40;100.00
4449;BME280;2237;51.870;6.160;2022-12-29T05:28:59;99839.03;;;11.31;100.00
4449;BME280;2237;51.870;6.160;2022-12-29T05:31:26;99844.75;;;11.39;100.00
4449;BME280;2237;51.870;6.160;2022-12-29T05:33:53;99862.16;;;11.39;100.00
4449;BME280;2237;51.870;6.160;2022-12-29T05:36:19;99853.69;;;11.33;100.00
4449;BME280;2237;51.870;6.160;2022-12-29T05:38:46;99871.72;;;11.38;100.00
4449;BME280;2237;51.870;6.160;2022-12-29T05:41:12;99878.25;;;11.28;100.00
4449;BME280;2237;51.870;6.160;2022-12-29T05:43:39;99886.31;;;11.22;100.00
4449;BME280;2237;51.870;6.160;2022-12-29T05:46:05;99893.50;;;11.15;100.00
4449;BME280;2237;51.870;6.160;2022-12-29T05:48:32;99892.53;;;11.18;100.00
4449;BME280;2237;51.870;6.160;2022-12-29T05:51:03;99898.81;;;11.14;100.00
4449;BME280;2237;51.870;6.160;2022-12-29T05:53:30;99897.72;;;11.19;100.00
4449;BME280;2237;51.870;6.160;2022-12-29T05:55:56;99894.38;;;11.16;100.00
4449;BME280;2237;51.870;6.160;2022-12-29T05:58:23;99904.06;;;11.12;100.00
4449;BME280;2237;51.870;6.160;2022-12-29T06:00:49;99900.81;;;11.06;100.00
4449;BME280;2237;51.870;6.160;2022-12-29T06:03:15;99909.56;;;11.05;100.00
4449;BME280;2237;51.870;6.160;2022-12-29T06:05:44;99903.16;;;11.13;100.00
4449;BME280;2237;51.870;6.160;2022-12-29T06:08:12;99916.03;;;10.95;100.00
4449;BME280;2237;51.870;6.160;2022-12-29T06:10:38;99894.84;;;11.04;100.00
4449;BME280;2237;51.870;6.160;2022-12-29T06:13:05;99904.38;;;11.05;100.00
4449;BME280;2237;51.870;6.160;2022-12-29T06:15:34;99896.47;;;11.06;100.00
4449;BME280;2237;51.870;6.160;2022-12-29T06:18:01;99906.00;;;11.07;100.00
4449;BME280;2237;51.870;6.160;2022-12-29T06:20:27;99910.53;;;11.02;100.00
4449;BME280;2237;51.870;6.160;2022-12-29T06:22:54;99907.00;;;11.03;100.00
4449;BME280;2237;51.870;6.160;2022-12-29T06:25:20;99904.38;;;11.05;100.00
4449;BME280;2237;51.870;6.160;2022-12-29T06:27:47;99897.63;;;10.99;100.00
4449;BME280;2237;51.870;6.160;2022-12-29T06:30:13;99893.56;;;10.92;100.00
4449;BME280;2237;51.870;6.160;2022-12-29T06:32:41;99898.59;;;10.97;100.00
4449;BME280;2237;51.870;6.160;2022-12-29T06:35:07;99889.97;;;10.95;100.00
4449;BME280;2237;51.870;6.160;2022-12-29T06:37:34;99892.81;;;10.89;100.00
4449;BME280;2237;51.870;6.160;2022-12-29T06:40:00;99889.09;;;10.96;100.00
4449;BME280;2237;51.870;6.160;2022-12-29T06:42:27;99890.16;;;10.90;100.00
4449;BME280;2237;51.870;6.160;2022-12-29T06:44:53;99902.34;;;10.90;100.00
4449;BME280;2237;51.870;6.160;2022-12-29T06:47:20;99902.00;;;10.99;100.00
4449;BME280;2237;51.870;6.160;2022-12-29T06:49:46;99893.22;;;11.01;100.00
4449;BME280;2237;51.870;6.160;2022-12-29T06:52:12;99901.63;;;11.08;100.00
4449;BME280;2237;51.870;6.160;2022-12-29T06:54:39;99900.81;;;11.06;100.00
4449;BME280;2237;51.870;6.160;2022-12-29T06:57:06;99906.00;;;11.07;100.00
4449;BME280;2237;51.870;6.160;2022-12-29T06:59:32;99904.97;;;11.11;100.00
4449;BME280;2237;51.870;6.160;2022-12-29T07:01:59;99904.47;;;11.02;100.00
4449;BME280;2237;51.870;6.160;2022-12-29T07:04:26;99913.28;;;10.99;100.00
4449;BME280;2237;51.870;6.160;2022-12-29T07:06:52;99908.84;;;11.01;100.00
4449;BME280;2237;51.870;6.160;2022-12-29T07:09:18;99905.69;;;10.93;100.00
4449;BME280;2237;51.870;6.160;2022-12-29T07:11:45;99927.50;;;10.91;100.00
4449;BME280;2237;51.870;6.160;2022-12-29T07:14:11;99928.28;;;10.93;100.00
4449;BME280;2237;51.870;6.160;2022-12-29T07:16:38;99928.28;;;10.93;100.00
4449;BME280;2237;51.870;6.160;2022-12-29T07:19:05;99926.28;;;10.99;100.00
4449;BME280;2237;51.870;6.160;2022-12-29T07:21:32;99927.06;;;11.01;100.00
4449;BME280;2237;51.870;6.160;2022-12-29T07:23:58;99932.91;;;11.08;100.00
4449;BME280;2237;51.870;6.160;2022-12-29T07:26:25;99930.78;;;11.17;100.00
4449;BME280;2237;51.870;6.160;2022-12-29T07:29:00;99923.75;;;11.19;100.00
4449;BME280;2237;51.870;6.160;2022-12-29T07:31:26;99930.25;;;11.31;100.00
4449;BME280;2237;51.870;6.160;2022-12-29T07:33:54;99930.88;;;11.38;100.00
4449;BME280;2237;51.870;6.160;2022-12-29T07:36:20;99923.88;;;11.38;100.00
4449;BME280;2237;51.870;6.160;2022-12-29T07:38:46;99933.53;;;11.36;100.00
4449;BME280;2237;51.870;6.160;2022-12-29T07:41:13;99937.50;;;11.45;100.00
4449;BME280;2237;51.870;6.160;2022-12-29T07:43:39;99946.31;;;11.42;100.00
4449;BME280;2237;51.870;6.160;2022-12-29T07:46:06;99940.59;;;11.32;100.00
4449;BME280;2237;51.870;6.160;2022-12-29T07:48:32;99944.59;;;11.41;100.00
4449;BME280;2237;51.870;6.160;2022-12-29T07:51:02;99958.63;;;11.39;100.00
4449;BME280;2237;51.870;6.160;2022-12-29T07:53:28;99947.34;;;11.38;100.00
4449;BME280;2237;51.870;6.160;2022-12-29T07:55:55;99945.47;;;11.42;100.00
4449;BME280;2237;51.870;6.160;2022-12-29T07:58:22;99964.44;;;11.45;100.00
4449;BME280;2237;51.870;6.160;2022-12-29T08:00:53;99957.16;;;11.53;100.00
4449;BME280;2237;51.870;6.160;2022-12-29T08:03:20;99968.38;;;11.55;100.00
4449;BME280;2237;51.870;6.160;2022-12-29T08:05:46;99970.44;;;11.47;100.00
4449;BME280;2237;51.870;6.160;2022-12-29T08:08:12;99983.19;;;11.55;100.00
4449;BME280;2237;51.870;6.160;2022-12-29T08:10:39;99969.34;;;11.53;100.00
4449;BME280;2237;51.870;6.160;2022-12-29T08:13:05;99974.09;;;11.43;100.00
4449;BME280;2237;51.870;6.160;2022-12-29T08:15:32;99975.78;;;11.44;100.00
4449;BME280;2237;51.870;6.160;2022-12-29T08:17:59;99983.03;;;11.36;100.00
4449;BME280;2237;51.870;6.160;2022-12-29T08:20:25;99971.00;;;11.33;100.00
4449;BME280;2237;51.870;6.160;2022-12-29T08:22:51;99986.66;;;11.32;100.00
4449;BME280;2237;51.870;6.160;2022-12-29T08:25:18;99989.34;;;11.30;100.00
4449;BME280;2237;51.870;6.160;2022-12-29T08:27:45;99991.22;;;11.27;100.00
4449;BME280;2237;51.870;6.160;2022-12-29T08:30:12;100001.84;;;11.22;100.00
4449;BME280;2237;51.870;6.160;2022-12-29T08:32:38;99986.94;;;11.26;100.00
4449;BME280;2237;51.870;6.160;2022-12-29T08:35:05;99979.44;;;11.40;100.00
4449;BME280;2237;51.870;6.160;2022-12-29T08:37:32;99995.19;;;11.37;100.00
4449;BME280;2237;51.870;6.160;2022-12-29T08:39:59;100003.78;;;11.39;100.00
4449;BME280;2237;51.870;6.160;2022-12-29T08:42:30;100006.31;;;11.41;100.00
4449;BME280;2237;51.870;6.160;2022-12-29T08:44:58;99997.84;;;11.35;100.00
4449;BME280;2237;51.870;6.160;2022-12-29T08:47:25;100000.88;;;11.47;100.00
4449;BME280;2237;51.870;6.160;2022-12-29T08:49:51;99992.88;;;11.51;100.00
4449;BME280;2237;51.870;6.160;2022-12-29T08:52:18;99994.09;;;11.43;100.00
4449;BME280;2237;51.870;6.160;2022-12-29T08:54:44;99986.31;;;11.41;100.00
4449;BME280;2237;51.870;6.160;2022-12-29T08:57:13;99988.75;;;11.46;100.00
4449;BME280;2237;51.870;6.160;2022-12-29T08:59:39;99988.28;;;11.58;100.00
4449;BME280;2237;51.870;6.160;2022-12-29T09:02:08;99992.41;;;11.63;100.00
4449;BME280;2237;51.870;6.160;2022-12-29T09:04:36;99982.75;;;11.65;100.00
4449;BME280;2237;51.870;6.160;2022-12-29T09:07:02;99996.00;;;11.82;100.00
4449;BME280;2237;51.870;6.160;2022-12-29T09:09:29;99988.81;;;11.87;100.00
4449;BME280;2237;51.870;6.160;2022-12-29T09:11:55;99986.69;;;11.97;100.00
4449;BME280;2237;51.870;6.160;2022-12-29T09:14:22;99988.94;;;11.84;100.00
4449;BME280;2237;51.870;6.160;2022-12-29T09:16:51;99980.94;;;11.89;100.00
4449;BME280;2237;51.870;6.160;2022-12-29T09:19:36;99986.34;;;11.84;100.00
4449;BME280;2237;51.870;6.160;2022-12-29T09:22:02;99988.03;;;11.85;100.00
4449;BME280;2237;51.870;6.160;2022-12-29T09:24:29;99989.63;;;11.89;100.00
4449;BME280;2237;51.870;6.160;2022-12-29T09:26:55;99986.47;;;11.81;100.00
4449;BME280;2237;51.870;6.160;2022-12-29T09:29:22;99991.09;;;11.75;100.00
4449;BME280;2237;51.870;6.160;2022-12-29T09:31:48;99999.50;;;11.81;100.00
4449;BME280;2237;51.870;6.160;2022-12-29T09:34:14;99992.59;;;11.80;100.00
4449;BME280;2237;51.870;6.160;2022-12-29T09:36:41;99998.81;;;11.78;100.00
4449;BME280;2237;51.870;6.160;2022-12-29T09:39:08;99997.13;;;11.75;100.00
4449;BME280;2237;51.870;6.160;2022-12-29T09:41:39;100012.78;;;11.75;100.00
4449;BME280;2237;51.870;6.160;2022-12-29T09:44:42;100011.84;;;11.78;100.00
4449;BME280;2237;51.870;6.160;2022-12-29T09:47:13;100024.16;;;11.74;100.00
4449;BME280;2237;51.870;6.160;2022-12-29T09:50:05;100037.06;;;11.77;100.00
4449;BME280;2237;51.870;6.160;2022-12-29T09:52:36;100011.00;;;11.77;100.00
4449;BME280;2237;51.870;6.160;2022-12-29T09:55:14;100022.84;;;11.84;100.00
4449;BME280;2237;51.870;6.160;2022-12-29T09:57:57;100022.09;;;11.82;100.00
4449;BME280;2237;51.870;6.160;2022-12-29T10:03:24;100035.81;;;11.64;100.00
4449;BME280;2237;51.870;6.160;2022-12-29T10:11:28;100051.03;;;11.53;100.00
4449;BME280;2237;51.870;6.160;2022-12-29T10:14:16;100049.59;;;11.46;100.00
4449;BME280;2237;51.870;6.160;2022-12-29T10:24:55;100076.38;;;11.03;100.00
4449;BME280;2237;51.870;6.160;2022-12-29T10:27:23;100080.91;;;10.98;100.00
4449;BME280;2237;51.870;6.160;2022-12-29T10:29:55;100068.06;;;10.94;100.00
4449;BME280;2237;51.870;6.160;2022-12-29T10:32:27;100076.47;;;11.00;100.00
4449;BME280;2237;51.870;6.160;2022-12-29T10:34:59;100076.66;;;10.96;100.00
4449;BME280;2237;51.870;6.160;2022-12-29T10:37:41;100092.06;;;11.02;100.00
4449;BME280;2237;51.870;6.160;2022-12-29T10:40:15;100086.22;;;10.95;100.00
4449;BME280;2237;51.870;6.160;2022-12-29T10:42:46;100095.56;;;11.01;100.00
4449;BME280;2237;51.870;6.160;2022-12-29T10:45:16;100110.19;;;11.05;100.00
4449;BME280;2237;51.870;6.160;2022-12-29T10:47:59;100113.81;;;11.01;100.00
4449;BME280;2237;51.870;6.160;2022-12-29T10:50:27;100116.41;;;11.01;100.00
4449;BME280;2237;51.870;6.160;2022-12-29T10:52:58;100106.84;;;11.01;100.00
4449;BME280;2237;51.870;6.160;2022-12-29T10:55:34;100121.16;;;10.90;100.00
4449;BME280;2237;51.870;6.160;2022-12-29T10:58:04;100121.66;;;10.74;100.00
4449;BME280;2237;51.870;6.160;2022-12-29T11:00:33;100129.47;;;10.74;100.00
4449;BME280;2237;51.870;6.160;2022-12-29T11:03:50;100123.50;;;10.72;100.00
4449;BME280;2237;51.870;6.160;2022-12-29T11:08:56;100132.66;;;10.58;100.00
4449;BME280;2237;51.870;6.160;2022-12-29T11:11:26;100145.59;;;10.61;100.00
4449;BME280;2237;51.870;6.160;2022-12-29T11:13:58;100149.72;;;10.66;100.00
4449;BME280;2237;51.870;6.160;2022-12-29T11:16:33;100154.09;;;10.66;100.00
4449;BME280;2237;51.870;6.160;2022-12-29T11:19:01;100153.13;;;10.68;100.00
4449;BME280;2237;51.870;6.160;2022-12-29T11:21:33;100161.28;;;10.84;100.00
4449;BME280;2237;51.870;6.160;2022-12-29T11:24:02;100160.03;;;10.96;100.00
4449;BME280;2237;51.870;6.160;2022-12-29T11:26:31;100173.53;;;11.31;100.00
4449;BME280;2237;51.870;6.160;2022-12-29T11:29:16;100163.91;;;11.32;100.00
4449;BME280;2237;51.870;6.160;2022-12-29T11:31:52;100165.34;;;11.41;100.00
4449;BME280;2237;51.870;6.160;2022-12-29T11:37:00;100185.91;;;11.25;100.00
4449;BME280;2237;51.870;6.160;2022-12-29T11:42:34;100186.59;;;11.30;100.00
4449;BME280;2237;51.870;6.160;2022-12-29T11:47:53;100203.94;;;11.31;100.00
4449;BME280;2237;51.870;6.160;2022-12-29T11:50:26;100194.28;;;11.34;100.00
4449;BME280;2237;51.870;6.160;2022-12-29T11:53:03;100197.38;;;11.44;100.00
4449;BME280;2237;51.870;6.160;2022-12-29T11:55:31;100191.16;;;11.48;100.00
4449;BME280;2237;51.870;6.160;2022-12-29T11:58:01;100213.47;;;11.55;100.00
4449;BME280;2237;51.870;6.160;2022-12-29T12:00:31;100197.59;;;11.63;100.00
4449;BME280;2237;51.870;6.160;2022-12-29T12:03:01;100184.72;;;11.81;100.00
4449;BME280;2237;51.870;6.160;2022-12-29T12:11:13;100204.25;;;11.95;100.00
4449;BME280;2237;51.870;6.160;2022-12-29T12:14:07;100212.31;;;11.64;100.00
4449;BME280;2237;51.870;6.160;2022-12-29T12:16:46;100211.19;;;11.72;100.00
4449;BME280;2237;51.870;6.160;2022-12-29T12:19:34;100217.69;;;11.84;100.00
4449;BME280;2237;51.870;6.160;2022-12-29T12:22:11;100214.50;;;11.99;100.00
4449;BME280;2237;51.870;6.160;2022-12-29T12:24:50;100214.78;;;11.92;100.00
4449;BME280;2237;51.870;6.160;2022-12-29T12:27:34;100210.09;;;12.01;100.00
4449;BME280;2237;51.870;6.160;2022-12-29T12:32:45;100205.00;;;12.20;100.00
4449;BME280;2237;51.870;6.160;2022-12-29T12:35:18;100212.28;;;12.12;100.00
4449;BME280;2237;51.870;6.160;2022-12-29T12:40:58;100231.22;;;11.94;100.00
4449;BME280;2237;51.870;6.160;2022-12-29T12:52:14;100240.06;;;11.66;100.00
4449;BME280;2237;51.870;6.160;2022-12-29T12:55:01;100238.34;;;11.65;100.00
4449;BME280;2237;51.870;6.160;2022-12-29T13:00:12;100242.19;;;12.03;100.00
4449;BME280;2237;51.870;6.160;2022-12-29T13:02:59;100242.22;;;12.25;100.00
4449;BME280;2237;51.870;6.160;2022-12-29T13:14:19;100252.91;;;11.72;100.00
4449;BME280;2237;51.870;6.160;2022-12-29T13:17:06;100245.88;;;11.74;100.00
4449;BME280;2237;51.870;6.160;2022-12-29T13:28:10;100258.81;;;12.01;100.00
4449;BME280;2237;51.870;6.160;2022-12-29T13:31:08;100271.31;;;11.93;100.00
4449;BME280;2237;51.870;6.160;2022-12-29T13:41:51;100269.81;;;11.85;100.00
4449;BME280;2237;51.870;6.160;2022-12-29T13:44:27;100273.22;;;11.87;100.00
4449;BME280;2237;51.870;6.160;2022-12-29T13:47:15;100267.19;;;11.85;100.00
4449;BME280;2237;51.870;6.160;2022-12-29T13:49:45;100287.91;;;11.90;100.00
4449;BME280;2237;51.870;6.160;2022-12-29T13:52:23;100282.06;;;11.83;100.00
4449;BME280;2237;51.870;6.160;2022-12-29T13:55:20;100282.94;;;11.84;100.00
4449;BME280;2237;51.870;6.160;2022-12-29T13:58:00;100279.06;;;11.94;100.00
4449;BME280;2237;51.870;6.160;2022-12-29T14:00:35;100275.56;;;11.95;100.00
4449;BME280;2237;51.870;6.160;2022-12-29T14:03:17;100281.16;;;11.84;100.00
4449;BME280;2237;51.870;6.160;2022-12-29T14:08:37;100286.69;;;11.75;100.00
4449;BME280;2237;51.870;6.160;2022-12-29T14:11:09;100292.97;;;11.70;100.00
4449;BME280;2237;51.870;6.160;2022-12-29T14:13:38;100303.66;;;11.62;100.00
4449;BME280;2237;51.870;6.160;2022-12-29T14:16:06;100306.19;;;11.39;100.00
4449;BME280;2237;51.870;6.160;2022-12-29T14:18:42;100314.69;;;11.19;100.00
4449;BME280;2237;51.870;6.160;2022-12-29T14:23:46;100324.13;;;10.69;100.00
4449;BME280;2237;51.870;6.160;2022-12-29T14:28:56;100325.19;;;10.62;100.00
4449;BME280;2237;51.870;6.160;2022-12-29T14:39:02;100341.63;;;10.64;100.00
4449;BME280;2237;51.870;6.160;2022-12-29T14:41:35;100337.75;;;10.77;100.00
4449;BME280;2237;51.870;6.160;2022-12-29T14:46:44;100340.25;;;10.81;100.00
4449;BME280;2237;51.870;6.160;2022-12-29T14:49:20;100332.81;;;10.96;100.00
4449;BME280;2237;51.870;6.160;2022-12-29T14:51:51;100338.69;;;11.03;100.00
4449;BME280;2237;51.870;6.160;2022-12-29T14:57:05;100339.72;;;10.97;100.00
4449;BME280;2237;51.870;6.160;2022-12-29T14:59:33;100336.50;;;10.89;100.00
4449;BME280;2237;51.870;6.160;2022-12-29T15:02:04;100343.16;;;10.99;100.00
4449;BME280;2237;51.870;6.160;2022-12-29T15:04:39;100335.56;;;10.92;100.00
4449;BME280;2237;51.870;6.160;2022-12-29T15:07:09;100347.59;;;10.96;100.00
4449;BME280;2237;51.870;6.160;2022-12-29T15:09:39;100348.75;;;10.87;100.00
4449;BME280;2237;51.870;6.160;2022-12-29T15:14:55;100344.00;;;10.72;100.00
4449;BME280;2237;51.870;6.160;2022-12-29T15:17:27;100356.16;;;10.71;100.00
4449;BME280;2237;51.870;6.160;2022-12-29T15:19:56;100365.59;;;10.75;100.00
4449;BME280;2237;51.870;6.160;2022-12-29T15:22:23;100351.00;;;10.70;100.00
4449;BME280;2237;51.870;6.160;2022-12-29T15:24:53;100354.41;;;10.72;100.00
4449;BME280;2237;51.870;6.160;2022-12-29T15:27:25;100360.31;;;10.77;100.00
4449;BME280;2237;51.870;6.160;2022-12-29T15:29:57;100364.25;;;10.62;100.00
4449;BME280;2237;51.870;6.160;2022-12-29T15:32:26;100359.78;;;10.67;100.00
4449;BME280;2237;51.870;6.160;2022-12-29T15:34:55;100357.16;;;10.67;100.00